West Point, Mississippi
Current Conditions -  °F | °C
As of 5:45 PM on Sunday 23 Nov 2014 (Local Time) from KGTR Reporting Station
Broken Clouds Broken Clouds  
Wind Chill: 63°   Ceiling: 5000
Heat Index: 63°   Visibility: 10mi
Dew Point: 55°   Wind: 12mph
Humidity: 77%   Direction: 180°S
Pressure: 29.53"   Gusts: NA
Location:  33.61°N, 88.65°W
Report Text: KGTR 232345Z 18010KT 10SM BKN050 17/13 A2953
Loading
Personal Weather Stations






























Interactive Weather Map New forecast layout! Learn more

10-Day Weather Forecast

Advertisements
Track Severe Weather on mobile